sensor_id;sensor_type;location;lat;lon;timestamp;P1;durP1;ratioP1;P2;durP2;ratioP2
1685;SDS011;840;47.980;7.830;2024-02-15T00:01:48;3.20;;;1.43;;
1685;SDS011;840;47.980;7.830;2024-02-15T00:04:14;1.80;;;1.53;;
1685;SDS011;840;47.980;7.830;2024-02-15T00:06:43;5.70;;;1.53;;
1685;SDS011;840;47.980;7.830;2024-02-15T00:09:10;3.13;;;1.47;;
1685;SDS011;840;47.980;7.830;2024-02-15T00:11:36;1.23;;;1.10;;
1685;SDS011;840;47.980;7.830;2024-02-15T00:14:04;3.33;;;1.47;;
1685;SDS011;840;47.980;7.830;2024-02-15T00:16:33;3.60;;;1.53;;
1685;SDS011;840;47.980;7.830;2024-02-15T00:19:00;3.13;;;1.40;;
1685;SDS011;840;47.980;7.830;2024-02-15T00:21:27;3.30;;;1.80;;
1685;SDS011;840;47.980;7.830;2024-02-15T00:23:55;2.20;;;1.47;;
1685;SDS011;840;47.980;7.830;2024-02-15T00:26:24;1.83;;;1.70;;
1685;SDS011;840;47.980;7.830;2024-02-15T00:28:51;1.60;;;1.50;;
1685;SDS011;840;47.980;7.830;2024-02-15T00:31:18;2.20;;;1.70;;
1685;SDS011;840;47.980;7.830;2024-02-15T00:33:44;2.20;;;1.93;;
1685;SDS011;840;47.980;7.830;2024-02-15T00:36:11;3.60;;;2.27;;
1685;SDS011;840;47.980;7.830;2024-02-15T00:38:38;2.00;;;1.80;;
1685;SDS011;840;47.980;7.830;2024-02-15T00:41:06;2.87;;;2.40;;
1685;SDS011;840;47.980;7.830;2024-02-15T00:43:34;3.97;;;2.70;;
1685;SDS011;840;47.980;7.830;2024-02-15T00:46:01;2.77;;;2.30;;
1685;SDS011;840;47.980;7.830;2024-02-15T00:48:28;4.07;;;3.67;;
1685;SDS011;840;47.980;7.830;2024-02-15T00:50:55;2.43;;;1.70;;
1685;SDS011;840;47.980;7.830;2024-02-15T00:53:21;7.40;;;2.57;;
1685;SDS011;840;47.980;7.830;2024-02-15T00:55:48;2.00;;;1.90;;
1685;SDS011;840;47.980;7.830;2024-02-15T00:58:16;4.40;;;2.37;;
1685;SDS011;840;47.980;7.830;2024-02-15T01:00:43;2.03;;;1.73;;
1685;SDS011;840;47.980;7.830;2024-02-15T01:03:10;3.80;;;2.00;;
1685;SDS011;840;47.980;7.830;2024-02-15T01:05:36;2.73;;;1.90;;
1685;SDS011;840;47.980;7.830;2024-02-15T01:08:03;2.20;;;1.57;;
1685;SDS011;840;47.980;7.830;2024-02-15T01:10:30;2.83;;;1.97;;
1685;SDS011;840;47.980;7.830;2024-02-15T01:12:58;3.17;;;1.40;;
1685;SDS011;840;47.980;7.830;2024-02-15T01:15:26;4.23;;;1.87;;
1685;SDS011;840;47.980;7.830;2024-02-15T01:17:53;1.23;;;1.13;;
1685;SDS011;840;47.980;7.830;2024-02-15T01:20:20;1.60;;;1.50;;
1685;SDS011;840;47.980;7.830;2024-02-15T01:22:47;2.20;;;1.53;;
1685;SDS011;840;47.980;7.830;2024-02-15T01:25:15;2.20;;;1.77;;
1685;SDS011;840;47.980;7.830;2024-02-15T01:27:42;2.17;;;1.30;;
1685;SDS011;840;47.980;7.830;2024-02-15T01:30:09;3.30;;;1.90;;
1685;SDS011;840;47.980;7.830;2024-02-15T01:32:38;2.10;;;1.90;;
1685;SDS011;840;47.980;7.830;2024-02-15T01:35:07;2.23;;;2.00;;
1685;SDS011;840;47.980;7.830;2024-02-15T01:37:35;1.93;;;1.60;;
1685;SDS011;840;47.980;7.830;2024-02-15T01:40:02;2.43;;;2.17;;
1685;SDS011;840;47.980;7.830;2024-02-15T01:42:31;1.70;;;1.53;;
1685;SDS011;840;47.980;7.830;2024-02-15T01:44:58;3.00;;;1.40;;
1685;SDS011;840;47.980;7.830;2024-02-15T01:47:25;2.80;;;1.93;;
1685;SDS011;840;47.980;7.830;2024-02-15T01:49:53;3.37;;;2.00;;
1685;SDS011;840;47.980;7.830;2024-02-15T01:52:19;2.27;;;1.60;;
1685;SDS011;840;47.980;7.830;2024-02-15T01:54:47;4.10;;;3.70;;
1685;SDS011;840;47.980;7.830;2024-02-15T01:57:14;3.37;;;1.90;;
1685;SDS011;840;47.980;7.830;2024-02-15T01:59:42;2.67;;;2.07;;
1685;SDS011;840;47.980;7.830;2024-02-15T02:02:09;3.37;;;2.33;;
1685;SDS011;840;47.980;7.830;2024-02-15T02:04:38;5.67;;;1.97;;
1685;SDS011;840;47.980;7.830;2024-02-15T02:07:08;2.20;;;1.90;;
1685;SDS011;840;47.980;7.830;2024-02-15T02:09:36;2.30;;;1.70;;
1685;SDS011;840;47.980;7.830;2024-02-15T02:12:02;2.33;;;1.83;;
1685;SDS011;840;47.980;7.830;2024-02-15T02:14:30;1.23;;;1.13;;
1685;SDS011;840;47.980;7.830;2024-02-15T02:17:00;2.50;;;1.40;;
1685;SDS011;840;47.980;7.830;2024-02-15T02:19:37;2.03;;;1.57;;
1685;SDS011;840;47.980;7.830;2024-02-15T02:22:03;2.50;;;1.57;;
1685;SDS011;840;47.980;7.830;2024-02-15T02:24:33;2.50;;;1.50;;
1685;SDS011;840;47.980;7.830;2024-02-15T02:27:08;3.50;;;1.90;;
1685;SDS011;840;47.980;7.830;2024-02-15T02:29:36;2.50;;;2.13;;
1685;SDS011;840;47.980;7.830;2024-02-15T02:32:10;3.17;;;1.70;;
1685;SDS011;840;47.980;7.830;2024-02-15T02:34:36;2.47;;;2.27;;
1685;SDS011;840;47.980;7.830;2024-02-15T02:37:03;2.47;;;2.27;;
1685;SDS011;840;47.980;7.830;2024-02-15T02:39:32;5.13;;;2.00;;
1685;SDS011;840;47.980;7.830;2024-02-15T02:41:59;1.90;;;1.40;;
1685;SDS011;840;47.980;7.830;2024-02-15T02:44:27;3.50;;;1.63;;
1685;SDS011;840;47.980;7.830;2024-02-15T02:46:54;1.80;;;1.70;;
1685;SDS011;840;47.980;7.830;2024-02-15T02:49:21;2.10;;;1.20;;
1685;SDS011;840;47.980;7.830;2024-02-15T02:51:48;3.33;;;1.80;;
1685;SDS011;840;47.980;7.830;2024-02-15T02:54:14;3.87;;;2.37;;
1685;SDS011;840;47.980;7.830;2024-02-15T02:56:41;5.90;;;2.00;;
1685;SDS011;840;47.980;7.830;2024-02-15T02:59:10;2.10;;;1.80;;
1685;SDS011;840;47.980;7.830;2024-02-15T03:01:39;2.40;;;2.00;;
1685;SDS011;840;47.980;7.830;2024-02-15T03:04:06;2.90;;;2.70;;
1685;SDS011;840;47.980;7.830;2024-02-15T03:06:32;3.30;;;3.00;;
1685;SDS011;840;47.980;7.830;2024-02-15T03:09:00;5.20;;;3.60;;
1685;SDS011;840;47.980;7.830;2024-02-15T03:11:31;4.10;;;2.33;;
1685;SDS011;840;47.980;7.830;2024-02-15T03:13:58;5.03;;;2.93;;
1685;SDS011;840;47.980;7.830;2024-02-15T03:16:25;1.80;;;1.70;;
1685;SDS011;840;47.980;7.830;2024-02-15T03:18:53;5.10;;;2.00;;
1685;SDS011;840;47.980;7.830;2024-02-15T03:21:20;2.63;;;1.93;;
1685;SDS011;840;47.980;7.830;2024-02-15T03:23:47;1.83;;;1.73;;
1685;SDS011;840;47.980;7.830;2024-02-15T03:26:13;5.37;;;2.40;;
1685;SDS011;840;47.980;7.830;2024-02-15T03:28:40;5.93;;;3.47;;
1685;SDS011;840;47.980;7.830;2024-02-15T03:31:07;3.03;;;2.70;;
1685;SDS011;840;47.980;7.830;2024-02-15T03:33:34;3.10;;;2.10;;
1685;SDS011;840;47.980;7.830;2024-02-15T03:36:04;2.27;;;1.83;;
1685;SDS011;840;47.980;7.830;2024-02-15T03:38:31;3.27;;;2.17;;
1685;SDS011;840;47.980;7.830;2024-02-15T03:40:58;3.80;;;1.43;;
1685;SDS011;840;47.980;7.830;2024-02-15T03:43:24;2.60;;;1.47;;
1685;SDS011;840;47.980;7.830;2024-02-15T03:45:51;3.20;;;1.67;;
1685;SDS011;840;47.980;7.830;2024-02-15T03:48:18;2.23;;;1.70;;
1685;SDS011;840;47.980;7.830;2024-02-15T03:50:45;1.47;;;1.27;;
1685;SDS011;840;47.980;7.830;2024-02-15T03:53:14;1.93;;;1.40;;
1685;SDS011;840;47.980;7.830;2024-02-15T03:55:41;5.13;;;2.50;;
1685;SDS011;840;47.980;7.830;2024-02-15T03:58:08;5.80;;;2.30;;
1685;SDS011;840;47.980;7.830;2024-02-15T04:00:35;5.00;;;1.30;;
1685;SDS011;840;47.980;7.830;2024-02-15T04:03:04;1.90;;;1.37;;
1685;SDS011;840;47.980;7.830;2024-02-15T04:05:30;1.43;;;1.10;;
1685;SDS011;840;47.980;7.830;2024-02-15T04:07:57;2.00;;;1.60;;
1685;SDS011;840;47.980;7.830;2024-02-15T04:10:28;1.20;;;1.10;;
1685;SDS011;840;47.980;7.830;2024-02-15T04:12:55;1.93;;;1.27;;
1685;SDS011;840;47.980;7.830;2024-02-15T04:15:23;4.87;;;1.50;;
1685;SDS011;840;47.980;7.830;2024-02-15T04:17:50;1.90;;;0.90;;
1685;SDS011;840;47.980;7.830;2024-02-15T04:20:21;1.13;;;1.00;;
1685;SDS011;840;47.980;7.830;2024-02-15T04:22:48;1.83;;;1.07;;
1685;SDS011;840;47.980;7.830;2024-02-15T04:25:15;1.00;;;0.90;;
1685;SDS011;840;47.980;7.830;2024-02-15T04:27:44;2.97;;;1.50;;
1685;SDS011;840;47.980;7.830;2024-02-15T04:30:11;1.00;;;1.00;;
1685;SDS011;840;47.980;7.830;2024-02-15T04:32:40;1.77;;;1.50;;
1685;SDS011;840;47.980;7.830;2024-02-15T04:35:07;1.03;;;0.93;;
1685;SDS011;840;47.980;7.830;2024-02-15T04:37:35;1.57;;;1.43;;
1685;SDS011;840;47.980;7.830;2024-02-15T04:40:02;1.13;;;1.00;;
1685;SDS011;840;47.980;7.830;2024-02-15T04:42:33;1.47;;;1.37;;
1685;SDS011;840;47.980;7.830;2024-02-15T04:45:02;2.30;;;1.53;;
1685;SDS011;840;47.980;7.830;2024-02-15T04:47:30;1.33;;;1.27;;
1685;SDS011;840;47.980;7.830;2024-02-15T04:49:57;2.97;;;1.40;;
1685;SDS011;840;47.980;7.830;2024-02-15T04:52:23;1.67;;;0.90;;
1685;SDS011;840;47.980;7.830;2024-02-15T04:54:50;1.47;;;0.70;;
1685;SDS011;840;47.980;7.830;2024-02-15T04:57:19;6.87;;;1.30;;
1685;SDS011;840;47.980;7.830;2024-02-15T04:59:47;1.40;;;1.30;;
1685;SDS011;840;47.980;7.830;2024-02-15T05:02:16;3.80;;;1.40;;
1685;SDS011;840;47.980;7.830;2024-02-15T05:04:44;2.03;;;1.03;;
1685;SDS011;840;47.980;7.830;2024-02-15T05:07:11;3.03;;;1.67;;
1685;SDS011;840;47.980;7.830;2024-02-15T05:09:42;1.90;;;1.30;;
1685;SDS011;840;47.980;7.830;2024-02-15T05:12:08;2.10;;;1.40;;
1685;SDS011;840;47.980;7.830;2024-02-15T05:14:35;1.23;;;1.00;;
1685;SDS011;840;47.980;7.830;2024-02-15T05:17:02;1.83;;;1.20;;
1685;SDS011;840;47.980;7.830;2024-02-15T05:19:31;2.30;;;1.73;;
1685;SDS011;840;47.980;7.830;2024-02-15T05:21:57;3.17;;;1.20;;
1685;SDS011;840;47.980;7.830;2024-02-15T05:24:26;2.30;;;1.07;;
1685;SDS011;840;47.980;7.830;2024-02-15T05:26:53;1.20;;;1.00;;
1685;SDS011;840;47.980;7.830;2024-02-15T05:29:20;2.37;;;1.60;;
1685;SDS011;840;47.980;7.830;2024-02-15T05:31:48;4.17;;;1.53;;
1685;SDS011;840;47.980;7.830;2024-02-15T05:34:16;2.47;;;1.27;;
1685;SDS011;840;47.980;7.830;2024-02-15T05:36:44;4.40;;;1.40;;
1685;SDS011;840;47.980;7.830;2024-02-15T05:39:13;3.37;;;1.47;;
1685;SDS011;840;47.980;7.830;2024-02-15T05:41:40;2.27;;;1.27;;
1685;SDS011;840;47.980;7.830;2024-02-15T05:44:06;3.37;;;1.30;;
1685;SDS011;840;47.980;7.830;2024-02-15T05:46:34;2.00;;;1.30;;
1685;SDS011;840;47.980;7.830;2024-02-15T05:49:02;1.80;;;1.70;;
1685;SDS011;840;47.980;7.830;2024-02-15T05:51:30;1.47;;;1.37;;
1685;SDS011;840;47.980;7.830;2024-02-15T05:54:00;1.40;;;0.93;;
1685;SDS011;840;47.980;7.830;2024-02-15T05:56:27;2.53;;;0.90;;
1685;SDS011;840;47.980;7.830;2024-02-15T05:58:54;3.67;;;1.03;;
1685;SDS011;840;47.980;7.830;2024-02-15T06:01:22;3.43;;;1.40;;
1685;SDS011;840;47.980;7.830;2024-02-15T06:03:49;0.87;;;0.87;;
1685;SDS011;840;47.980;7.830;2024-02-15T06:06:20;2.77;;;1.07;;
1685;SDS011;840;47.980;7.830;2024-02-15T06:08:46;1.50;;;1.40;;
1685;SDS011;840;47.980;7.830;2024-02-15T06:11:18;1.70;;;1.43;;
1685;SDS011;840;47.980;7.830;2024-02-15T06:13:46;3.77;;;1.23;;
1685;SDS011;840;47.980;7.830;2024-02-15T06:16:12;2.40;;;1.37;;
1685;SDS011;840;47.980;7.830;2024-02-15T06:18:39;1.63;;;1.00;;
1685;SDS011;840;47.980;7.830;2024-02-15T06:21:06;1.27;;;1.10;;
1685;SDS011;840;47.980;7.830;2024-02-15T06:23:34;1.53;;;0.90;;
1685;SDS011;840;47.980;7.830;2024-02-15T06:26:01;2.00;;;1.50;;
1685;SDS011;840;47.980;7.830;2024-02-15T06:28:29;1.10;;;1.00;;
1685;SDS011;840;47.980;7.830;2024-02-15T06:31:14;1.37;;;1.27;;
1685;SDS011;840;47.980;7.830;2024-02-15T06:33:58;1.20;;;1.10;;
1685;SDS011;840;47.980;7.830;2024-02-15T06:36:48;3.03;;;1.23;;
1685;SDS011;840;47.980;7.830;2024-02-15T06:39:33;3.30;;;1.27;;
1685;SDS011;840;47.980;7.830;2024-02-15T06:42:07;2.47;;;1.23;;
1685;SDS011;840;47.980;7.830;2024-02-15T06:44:35;1.53;;;0.97;;
1685;SDS011;840;47.980;7.830;2024-02-15T06:47:02;1.47;;;1.10;;
1685;SDS011;840;47.980;7.830;2024-02-15T06:49:29;1.27;;;1.03;;
1685;SDS011;840;47.980;7.830;2024-02-15T06:51:56;3.00;;;1.77;;
1685;SDS011;840;47.980;7.830;2024-02-15T06:54:24;2.30;;;1.20;;
1685;SDS011;840;47.980;7.830;2024-02-15T06:56:50;2.10;;;1.90;;
1685;SDS011;840;47.980;7.830;2024-02-15T06:59:19;1.50;;;1.33;;
1685;SDS011;840;47.980;7.830;2024-02-15T07:01:48;3.80;;;2.00;;
1685;SDS011;840;47.980;7.830;2024-02-15T07:04:17;3.30;;;1.77;;
1685;SDS011;840;47.980;7.830;2024-02-15T07:06:44;4.97;;;2.10;;
1685;SDS011;840;47.980;7.830;2024-02-15T07:09:12;4.20;;;2.37;;
1685;SDS011;840;47.980;7.830;2024-02-15T07:11:43;4.47;;;2.60;;
1685;SDS011;840;47.980;7.830;2024-02-15T07:14:09;3.43;;;2.47;;
1685;SDS011;840;47.980;7.830;2024-02-15T07:16:36;6.80;;;2.70;;
1685;SDS011;840;47.980;7.830;2024-02-15T07:19:04;3.97;;;3.40;;
1685;SDS011;840;47.980;7.830;2024-02-15T07:21:34;5.10;;;3.57;;
1685;SDS011;840;47.980;7.830;2024-02-15T07:24:01;5.90;;;4.60;;
1685;SDS011;840;47.980;7.830;2024-02-15T07:26:29;10.33;;;5.40;;
1685;SDS011;840;47.980;7.830;2024-02-15T07:28:58;9.10;;;5.30;;
1685;SDS011;840;47.980;7.830;2024-02-15T07:31:27;5.77;;;4.30;;
1685;SDS011;840;47.980;7.830;2024-02-15T07:33:55;6.60;;;5.13;;
1685;SDS011;840;47.980;7.830;2024-02-15T07:36:23;5.80;;;3.57;;
1685;SDS011;840;47.980;7.830;2024-02-15T07:38:51;4.80;;;3.93;;
1685;SDS011;840;47.980;7.830;2024-02-15T07:41:19;3.60;;;2.70;;
1685;SDS011;840;47.980;7.830;2024-02-15T07:43:48;4.57;;;2.87;;
1685;SDS011;840;47.980;7.830;2024-02-15T07:46:15;3.13;;;2.77;;
1685;SDS011;840;47.980;7.830;2024-02-15T07:48:42;3.97;;;3.50;;
1685;SDS011;840;47.980;7.830;2024-02-15T07:51:11;5.10;;;3.17;;
1685;SDS011;840;47.980;7.830;2024-02-15T07:53:41;6.37;;;2.83;;
1685;SDS011;840;47.980;7.830;2024-02-15T07:56:09;4.43;;;2.50;;
1685;SDS011;840;47.980;7.830;2024-02-15T07:58:38;2.87;;;2.67;;
1685;SDS011;840;47.980;7.830;2024-02-15T08:01:10;3.20;;;2.30;;
1685;SDS011;840;47.980;7.830;2024-02-15T08:03:36;2.97;;;2.40;;
1685;SDS011;840;47.980;7.830;2024-02-15T08:06:07;4.13;;;2.50;;
1685;SDS011;840;47.980;7.830;2024-02-15T08:08:34;8.20;;;5.10;;
1685;SDS011;840;47.980;7.830;2024-02-15T08:11:03;7.70;;;6.13;;
1685;SDS011;840;47.980;7.830;2024-02-15T08:13:30;5.37;;;4.93;;
1685;SDS011;840;47.980;7.830;2024-02-15T08:15:57;8.00;;;5.37;;
1685;SDS011;840;47.980;7.830;2024-02-15T08:18:24;6.23;;;5.63;;
1685;SDS011;840;47.980;7.830;2024-02-15T08:20:50;6.83;;;5.43;;
1685;SDS011;840;47.980;7.830;2024-02-15T08:23:17;7.63;;;5.80;;
1685;SDS011;840;47.980;7.830;2024-02-15T08:25:44;6.50;;;5.90;;
1685;SDS011;840;47.980;7.830;2024-02-15T08:28:12;11.10;;;6.10;;
1685;SDS011;840;47.980;7.830;2024-02-15T08:30:40;6.23;;;5.23;;
1685;SDS011;840;47.980;7.830;2024-02-15T08:33:06;11.27;;;5.80;;
1685;SDS011;840;47.980;7.830;2024-02-15T08:35:35;6.43;;;4.30;;
1685;SDS011;840;47.980;7.830;2024-02-15T08:38:03;9.33;;;6.20;;
1685;SDS011;840;47.980;7.830;2024-02-15T08:40:30;5.73;;;5.13;;
1685;SDS011;840;47.980;7.830;2024-02-15T08:42:57;7.00;;;5.33;;
1685;SDS011;840;47.980;7.830;2024-02-15T08:45:25;7.13;;;6.40;;
1685;SDS011;840;47.980;7.830;2024-02-15T08:47:52;6.67;;;6.03;;
1685;SDS011;840;47.980;7.830;2024-02-15T08:50:19;5.67;;;5.20;;
1685;SDS011;840;47.980;7.830;2024-02-15T08:52:48;7.27;;;6.30;;
1685;SDS011;840;47.980;7.830;2024-02-15T08:55:15;7.97;;;5.73;;
1685;SDS011;840;47.980;7.830;2024-02-15T08:57:42;5.60;;;4.50;;
1685;SDS011;840;47.980;7.830;2024-02-15T09:00:10;5.77;;;5.20;;
1685;SDS011;840;47.980;7.830;2024-02-15T09:02:42;7.57;;;5.30;;
1685;SDS011;840;47.980;7.830;2024-02-15T09:05:09;7.07;;;4.97;;
1685;SDS011;840;47.980;7.830;2024-02-15T09:07:39;5.33;;;4.70;;
1685;SDS011;840;47.980;7.830;2024-02-15T09:10:06;4.97;;;4.47;;
1685;SDS011;840;47.980;7.830;2024-02-15T09:12:34;5.87;;;4.40;;
1685;SDS011;840;47.980;7.830;2024-02-15T09:15:03;5.50;;;4.80;;
1685;SDS011;840;47.980;7.830;2024-02-15T09:17:29;8.10;;;5.30;;
1685;SDS011;840;47.980;7.830;2024-02-15T09:19:58;3.77;;;3.47;;
1685;SDS011;840;47.980;7.830;2024-02-15T09:22:25;5.67;;;5.13;;
1685;SDS011;840;47.980;7.830;2024-02-15T09:24:52;5.23;;;4.23;;
1685;SDS011;840;47.980;7.830;2024-02-15T09:27:19;6.17;;;5.03;;
1685;SDS011;840;47.980;7.830;2024-02-15T09:29:46;7.07;;;4.00;;
1685;SDS011;840;47.980;7.830;2024-02-15T09:32:12;6.07;;;4.20;;
1685;SDS011;840;47.980;7.830;2024-02-15T09:34:39;4.23;;;3.83;;
1685;SDS011;840;47.980;7.830;2024-02-15T09:37:08;5.07;;;4.07;;
1685;SDS011;840;47.980;7.830;2024-02-15T09:39:36;6.50;;;4.77;;
1685;SDS011;840;47.980;7.830;2024-02-15T09:42:03;6.40;;;4.07;;
1685;SDS011;840;47.980;7.830;2024-02-15T09:44:29;6.30;;;5.20;;
1685;SDS011;840;47.980;7.830;2024-02-15T09:47:00;9.30;;;5.07;;
1685;SDS011;840;47.980;7.830;2024-02-15T09:49:33;7.00;;;6.10;;
1685;SDS011;840;47.980;7.830;2024-02-15T09:52:02;6.30;;;5.40;;
1685;SDS011;840;47.980;7.830;2024-02-15T09:54:30;6.57;;;5.20;;
1685;SDS011;840;47.980;7.830;2024-02-15T09:56:59;6.30;;;5.70;;
1685;SDS011;840;47.980;7.830;2024-02-15T09:59:27;6.43;;;5.70;;
1685;SDS011;840;47.980;7.830;2024-02-15T10:01:56;6.33;;;5.73;;
1685;SDS011;840;47.980;7.830;2024-02-15T10:04:25;11.40;;;6.53;;
1685;SDS011;840;47.980;7.830;2024-02-15T10:06:51;9.83;;;6.23;;
1685;SDS011;840;47.980;7.830;2024-02-15T10:09:25;6.10;;;5.37;;
1685;SDS011;840;47.980;7.830;2024-02-15T10:11:59;9.40;;;5.47;;
1685;SDS011;840;47.980;7.830;2024-02-15T10:14:27;7.17;;;6.30;;
1685;SDS011;840;47.980;7.830;2024-02-15T10:16:54;6.20;;;5.70;;
1685;SDS011;840;47.980;7.830;2024-02-15T10:19:22;6.60;;;5.60;;
1685;SDS011;840;47.980;7.830;2024-02-15T10:21:53;5.40;;;4.90;;
1685;SDS011;840;47.980;7.830;2024-02-15T10:24:21;9.30;;;5.40;;
1685;SDS011;840;47.980;7.830;2024-02-15T10:26:49;9.37;;;6.87;;
1685;SDS011;840;47.980;7.830;2024-02-15T10:29:18;5.70;;;5.20;;
1685;SDS011;840;47.980;7.830;2024-02-15T10:31:52;5.67;;;4.53;;
1685;SDS011;840;47.980;7.830;2024-02-15T10:34:20;9.30;;;5.00;;
1685;SDS011;840;47.980;7.830;2024-02-15T10:36:47;8.00;;;4.80;;
1685;SDS011;840;47.980;7.830;2024-02-15T10:39:15;5.47;;;5.00;;
1685;SDS011;840;47.980;7.830;2024-02-15T10:41:46;7.60;;;4.90;;
1685;SDS011;840;47.980;7.830;2024-02-15T10:44:15;5.37;;;4.60;;
1685;SDS011;840;47.980;7.830;2024-02-15T10:46:44;6.50;;;4.90;;
1685;SDS011;840;47.980;7.830;2024-02-15T10:49:15;7.97;;;4.73;;
1685;SDS011;840;47.980;7.830;2024-02-15T10:51:48;7.10;;;4.67;;
1685;SDS011;840;47.980;7.830;2024-02-15T10:54:22;6.60;;;4.90;;
1685;SDS011;840;47.980;7.830;2024-02-15T10:57:01;7.17;;;4.83;;
1685;SDS011;840;47.980;7.830;2024-02-15T10:59:34;9.17;;;5.70;;
1685;SDS011;840;47.980;7.830;2024-02-15T11:02:05;9.77;;;5.57;;
1685;SDS011;840;47.980;7.830;2024-02-15T11:04:49;4.80;;;4.30;;
1685;SDS011;840;47.980;7.830;2024-02-15T11:07:23;10.57;;;6.77;;
1685;SDS011;840;47.980;7.830;2024-02-15T11:09:51;5.53;;;4.63;;
1685;SDS011;840;47.980;7.830;2024-02-15T11:12:18;6.20;;;5.60;;
1685;SDS011;840;47.980;7.830;2024-02-15T11:14:47;5.27;;;4.77;;
1685;SDS011;840;47.980;7.830;2024-02-15T11:17:44;6.40;;;4.97;;
1685;SDS011;840;47.980;7.830;2024-02-15T11:23:24;4.97;;;4.27;;
1685;SDS011;840;47.980;7.830;2024-02-15T11:25:52;8.00;;;4.90;;
1685;SDS011;840;47.980;7.830;2024-02-15T11:28:39;5.50;;;4.23;;
1685;SDS011;840;47.980;7.830;2024-02-15T11:43:45;6.03;;;4.60;;
1685;SDS011;840;47.980;7.830;2024-02-15T11:46:19;5.70;;;4.63;;
1685;SDS011;840;47.980;7.830;2024-02-15T11:48:47;5.53;;;4.30;;
1685;SDS011;840;47.980;7.830;2024-02-15T11:51:25;4.57;;;4.17;;
1685;SDS011;840;47.980;7.830;2024-02-15T11:54:02;6.77;;;5.50;;
1685;SDS011;840;47.980;7.830;2024-02-15T11:56:32;8.13;;;5.17;;
1685;SDS011;840;47.980;7.830;2024-02-15T11:59:02;4.43;;;4.13;;
1685;SDS011;840;47.980;7.830;2024-02-15T12:01:32;7.63;;;4.70;;
1685;SDS011;840;47.980;7.830;2024-02-15T12:04:16;6.27;;;4.23;;
1685;SDS011;840;47.980;7.830;2024-02-15T12:07:03;5.47;;;4.97;;
1685;SDS011;840;47.980;7.830;2024-02-15T12:09:47;8.50;;;5.40;;
1685;SDS011;840;47.980;7.830;2024-02-15T12:12:31;6.07;;;4.50;;
1685;SDS011;840;47.980;7.830;2024-02-15T12:15:15;4.70;;;3.50;;
1685;SDS011;840;47.980;7.830;2024-02-15T12:18:13;4.47;;;4.03;;
1685;SDS011;840;47.980;7.830;2024-02-15T12:21:03;4.93;;;3.50;;
1685;SDS011;840;47.980;7.830;2024-02-15T12:23:32;6.23;;;5.37;;
1685;SDS011;840;47.980;7.830;2024-02-15T12:26:00;5.47;;;4.97;;
1685;SDS011;840;47.980;7.830;2024-02-15T12:28:28;7.10;;;5.50;;
1685;SDS011;840;47.980;7.830;2024-02-15T12:30:56;9.80;;;5.43;;
1685;SDS011;840;47.980;7.830;2024-02-15T12:33:23;5.27;;;3.70;;
1685;SDS011;840;47.980;7.830;2024-02-15T12:35:50;7.07;;;4.30;;
1685;SDS011;840;47.980;7.830;2024-02-15T12:38:17;4.73;;;4.23;;
1685;SDS011;840;47.980;7.830;2024-02-15T12:40:45;4.43;;;3.60;;
1685;SDS011;840;47.980;7.830;2024-02-15T12:43:12;5.03;;;4.53;;
1685;SDS011;840;47.980;7.830;2024-02-15T12:45:39;5.07;;;4.27;;
1685;SDS011;840;47.980;7.830;2024-02-15T12:48:06;6.40;;;4.10;;
1685;SDS011;840;47.980;7.830;2024-02-15T12:50:34;5.10;;;4.43;;
1685;SDS011;840;47.980;7.830;2024-02-15T12:53:02;5.93;;;3.57;;
1685;SDS011;840;47.980;7.830;2024-02-15T12:55:29;5.77;;;4.10;;
1685;SDS011;840;47.980;7.830;2024-02-15T12:58:01;4.90;;;3.20;;
1685;SDS011;840;47.980;7.830;2024-02-15T13:00:33;6.77;;;4.13;;
1685;SDS011;840;47.980;7.830;2024-02-15T13:03:02;5.43;;;3.70;;
1685;SDS011;840;47.980;7.830;2024-02-15T13:05:30;4.07;;;3.53;;
1685;SDS011;840;47.980;7.830;2024-02-15T13:07:57;5.90;;;4.00;;
1685;SDS011;840;47.980;7.830;2024-02-15T13:10:24;4.17;;;3.77;;
1685;SDS011;840;47.980;7.830;2024-02-15T13:12:51;3.90;;;3.50;;
1685;SDS011;840;47.980;7.830;2024-02-15T13:15:22;6.90;;;4.00;;
1685;SDS011;840;47.980;7.830;2024-02-15T13:17:52;3.83;;;3.53;;
1685;SDS011;840;47.980;7.830;2024-02-15T13:20:20;6.60;;;4.53;;
1685;SDS011;840;47.980;7.830;2024-02-15T13:22:57;3.93;;;3.53;;
1685;SDS011;840;47.980;7.830;2024-02-15T13:25:27;5.33;;;3.80;;
1685;SDS011;840;47.980;7.830;2024-02-15T13:27:56;8.73;;;3.50;;
1685;SDS011;840;47.980;7.830;2024-02-15T13:30:24;4.43;;;4.00;;
1685;SDS011;840;47.980;7.830;2024-02-15T13:32:52;7.33;;;4.33;;
1685;SDS011;840;47.980;7.830;2024-02-15T13:35:20;7.27;;;4.10;;
1685;SDS011;840;47.980;7.830;2024-02-15T13:37:48;6.13;;;3.90;;
1685;SDS011;840;47.980;7.830;2024-02-15T13:40:19;9.40;;;4.50;;
1685;SDS011;840;47.980;7.830;2024-02-15T13:42:48;4.17;;;3.27;;
1685;SDS011;840;47.980;7.830;2024-02-15T13:45:18;6.30;;;4.83;;
1685;SDS011;840;47.980;7.830;2024-02-15T13:47:46;5.97;;;3.93;;
1685;SDS011;840;47.980;7.830;2024-02-15T13:50:13;4.27;;;3.87;;
1685;SDS011;840;47.980;7.830;2024-02-15T13:52:40;8.50;;;4.80;;
1685;SDS011;840;47.980;7.830;2024-02-15T13:55:08;5.53;;;4.23;;
1685;SDS011;840;47.980;7.830;2024-02-15T13:57:36;4.77;;;4.27;;
1685;SDS011;840;47.980;7.830;2024-02-15T14:00:03;15.23;;;4.40;;
1685;SDS011;840;47.980;7.830;2024-02-15T14:02:31;6.40;;;4.15;;
1685;SDS011;840;47.980;7.830;2024-02-15T14:04:59;8.37;;;4.10;;
1685;SDS011;840;47.980;7.830;2024-02-15T14:07:26;9.50;;;4.00;;
1685;SDS011;840;47.980;7.830;2024-02-15T14:09:52;7.70;;;3.77;;
1685;SDS011;840;47.980;7.830;2024-02-15T14:12:19;5.30;;;4.27;;
1685;SDS011;840;47.980;7.830;2024-02-15T14:14:46;4.77;;;3.40;;
1685;SDS011;840;47.980;7.830;2024-02-15T14:17:12;5.00;;;4.00;;
1685;SDS011;840;47.980;7.830;2024-02-15T14:19:40;3.90;;;3.33;;
1685;SDS011;840;47.980;7.830;2024-02-15T14:22:09;3.90;;;3.40;;
1685;SDS011;840;47.980;7.830;2024-02-15T14:24:41;4.70;;;4.00;;
1685;SDS011;840;47.980;7.830;2024-02-15T14:27:08;4.33;;;3.90;;
1685;SDS011;840;47.980;7.830;2024-02-15T14:29:36;3.77;;;3.30;;
1685;SDS011;840;47.980;7.830;2024-02-15T14:32:09;4.30;;;3.27;;
1685;SDS011;840;47.980;7.830;2024-02-15T14:34:54;5.80;;;3.70;;
1685;SDS011;840;47.980;7.830;2024-02-15T14:37:22;6.10;;;3.90;;
1685;SDS011;840;47.980;7.830;2024-02-15T14:39:50;4.10;;;3.67;;
1685;SDS011;840;47.980;7.830;2024-02-15T14:42:16;4.87;;;4.03;;
1685;SDS011;840;47.980;7.830;2024-02-15T14:44:43;4.70;;;3.80;;
1685;SDS011;840;47.980;7.830;2024-02-15T14:47:10;8.00;;;4.67;;
1685;SDS011;840;47.980;7.830;2024-02-15T14:49:36;6.60;;;3.60;;
1685;SDS011;840;47.980;7.830;2024-02-15T14:52:04;4.50;;;3.97;;
1685;SDS011;840;47.980;7.830;2024-02-15T14:54:32;5.80;;;4.40;;
1685;SDS011;840;47.980;7.830;2024-02-15T14:57:01;8.17;;;3.90;;
1685;SDS011;840;47.980;7.830;2024-02-15T14:59:27;6.60;;;4.10;;
1685;SDS011;840;47.980;7.830;2024-02-15T15:01:54;6.60;;;4.13;;
1685;SDS011;840;47.980;7.830;2024-02-15T15:04:22;6.10;;;3.53;;
1685;SDS011;840;47.980;7.830;2024-02-15T15:06:51;5.30;;;3.70;;
1685;SDS011;840;47.980;7.830;2024-02-15T15:09:48;4.87;;;3.87;;
1685;SDS011;840;47.980;7.830;2024-02-15T15:12:38;4.87;;;4.47;;
1685;SDS011;840;47.980;7.830;2024-02-15T15:15:07;7.40;;;3.43;;
1685;SDS011;840;47.980;7.830;2024-02-15T15:17:37;3.83;;;3.20;;
1685;SDS011;840;47.980;7.830;2024-02-15T15:20:05;4.93;;;3.87;;
1685;SDS011;840;47.980;7.830;2024-02-15T15:22:34;6.90;;;4.67;;
1685;SDS011;840;47.980;7.830;2024-02-15T15:25:02;6.37;;;4.90;;
1685;SDS011;840;47.980;7.830;2024-02-15T15:27:29;4.07;;;3.30;;
1685;SDS011;840;47.980;7.830;2024-02-15T15:29:56;5.23;;;3.70;;
1685;SDS011;840;47.980;7.830;2024-02-15T15:32:25;5.17;;;3.63;;
1685;SDS011;840;47.980;7.830;2024-02-15T15:34:52;5.90;;;3.73;;
1685;SDS011;840;47.980;7.830;2024-02-15T15:37:21;10.67;;;4.10;;
1685;SDS011;840;47.980;7.830;2024-02-15T15:39:48;4.63;;;3.30;;
1685;SDS011;840;47.980;7.830;2024-02-15T15:42:16;3.80;;;3.50;;
1685;SDS011;840;47.980;7.830;2024-02-15T15:44:44;6.73;;;4.10;;
1685;SDS011;840;47.980;7.830;2024-02-15T15:47:12;5.60;;;5.10;;
1685;SDS011;840;47.980;7.830;2024-02-15T15:49:39;6.90;;;4.00;;
1685;SDS011;840;47.980;7.830;2024-02-15T15:52:06;6.30;;;4.47;;
1685;SDS011;840;47.980;7.830;2024-02-15T15:54:32;3.90;;;3.60;;
1685;SDS011;840;47.980;7.830;2024-02-15T15:56:59;7.53;;;4.17;;